createdAt,value
2022-11-29T00:01:32.984Z,14.07
2022-11-29T00:04:00.704Z,12.35
2022-11-29T00:06:31.428Z,12.10
2022-11-29T00:09:02.008Z,12.00
2022-11-29T00:11:51.989Z,10.57
2022-11-29T00:14:20.061Z,12.90
2022-11-29T00:16:52.191Z,12.10
2022-11-29T00:19:20.273Z,9.45
2022-11-29T00:21:47.859Z,13.45
2022-11-29T00:24:15.005Z,10.98
2022-11-29T00:26:42.315Z,11.18
2022-11-29T00:29:12.261Z,13.55
2022-11-29T00:31:39.845Z,10.27
2022-11-29T00:34:07.775Z,11.70
2022-11-29T00:36:35.636Z,10.45
2022-11-29T00:39:05.093Z,11.52
2022-11-29T00:41:33.015Z,10.73
2022-11-29T00:44:00.912Z,11.55
2022-11-29T00:46:28.191Z,10.50
2022-11-29T00:48:55.606Z,11.25
2022-11-29T00:51:22.843Z,10.15
2022-11-29T00:53:50.027Z,11.27
2022-11-29T00:56:17.266Z,8.35
2022-11-29T00:58:44.582Z,8.77
2022-11-29T01:01:12.058Z,10.90
2022-11-29T01:03:39.503Z,10.10
2022-11-29T01:06:09.604Z,10.15
2022-11-29T01:08:37.581Z,8.15
2022-11-29T01:11:14.580Z,8.57
2022-11-29T01:13:42.598Z,8.65
2022-11-29T01:16:09.809Z,8.88
2022-11-29T01:18:38.240Z,12.30
2022-11-29T01:21:15.795Z,7.25
2022-11-29T01:23:43.912Z,8.02
2022-11-29T01:26:26.572Z,8.27
2022-11-29T01:28:55.517Z,8.52
2022-11-29T01:31:27.068Z,8.20
2022-11-29T01:33:59.405Z,9.80
2022-11-29T01:36:26.860Z,9.07
2022-11-29T01:38:54.484Z,9.18
2022-11-29T01:41:25.296Z,8.85
2022-11-29T01:44:03.537Z,9.30
2022-11-29T01:46:36.747Z,6.32
2022-11-29T01:49:08.537Z,7.78
2022-11-29T01:51:37.885Z,8.73
2022-11-29T01:54:06.309Z,8.20
2022-11-29T01:56:35.343Z,6.78
2022-11-29T01:59:07.933Z,9.38
2022-11-29T02:01:36.713Z,6.97
2022-11-29T02:04:04.745Z,6.63
2022-11-29T02:06:32.314Z,7.53
2022-11-29T02:08:59.623Z,5.78
2022-11-29T02:11:35.190Z,8.68
2022-11-29T02:14:30.418Z,6.00
2022-11-29T02:17:00.350Z,8.85
2022-11-29T02:19:57.712Z,8.23
2022-11-29T02:22:38.556Z,8.90
2022-11-29T02:25:17.744Z,6.07
2022-11-29T02:28:09.685Z,7.10
2022-11-29T02:30:58.440Z,6.78
2022-11-29T02:33:49.409Z,9.48
2022-11-29T02:36:53.886Z,6.65
2022-11-29T02:39:44.190Z,7.65
2022-11-29T02:42:55.720Z,8.57
2022-11-29T02:45:32.742Z,7.05
2022-11-29T02:48:14.736Z,6.97
2022-11-29T02:50:57.360Z,6.40
2022-11-29T02:53:38.294Z,7.65
2022-11-29T02:56:14.586Z,6.63
2022-11-29T02:58:55.761Z,6.18
2022-11-29T03:01:31.007Z,6.82
2022-11-29T03:04:14.131Z,5.80
2022-11-29T03:06:54.689Z,6.10
2022-11-29T03:09:46.614Z,5.43
2022-11-29T03:12:45.364Z,5.90
2022-11-29T03:15:27.759Z,6.05
2022-11-29T03:21:03.623Z,5.75
2022-11-29T03:23:39.354Z,7.43
2022-11-29T03:26:16.216Z,6.53
2022-11-29T03:29:07.474Z,6.35
2022-11-29T03:31:42.420Z,5.00
2022-11-29T03:34:15.501Z,6.07
2022-11-29T03:36:46.095Z,6.85
2022-11-29T03:39:19.521Z,9.68
2022-11-29T03:41:57.355Z,7.40
2022-11-29T03:44:45.149Z,9.38
2022-11-29T03:47:19.984Z,7.55
2022-11-29T03:49:56.462Z,5.53
2022-11-29T03:52:36.269Z,7.72
2022-11-29T03:55:09.290Z,5.57
2022-11-29T03:58:15.909Z,5.20
2022-11-29T04:01:15.807Z,6.15
2022-11-29T04:04:09.458Z,5.20
2022-11-29T04:06:57.987Z,5.25
2022-11-29T04:09:34.269Z,6.32
2022-11-29T04:12:07.391Z,6.30
2022-11-29T04:14:57.733Z,5.93
2022-11-29T04:17:30.773Z,6.50
2022-11-29T04:20:29.880Z,7.13
2022-11-29T04:23:37.837Z,8.07
2022-11-29T04:26:48.850Z,8.20
2022-11-29T04:29:40.349Z,8.50
2022-11-29T04:32:19.827Z,9.10
2022-11-29T04:34:56.206Z,13.05
2022-11-29T04:37:41.147Z,11.07
2022-11-29T04:40:47.301Z,8.15
2022-11-29T04:43:33.113Z,11.18
2022-11-29T04:46:41.587Z,12.02
2022-11-29T04:49:36.360Z,16.55
2022-11-29T04:52:41.725Z,12.27
2022-11-29T04:55:53.830Z,12.25
2022-11-29T04:58:58.860Z,12.90
2022-11-29T05:01:47.250Z,9.95
2022-11-29T05:04:39.637Z,10.45
2022-11-29T05:07:29.582Z,11.80
2022-11-29T05:10:15.398Z,11.88
2022-11-29T05:13:19.957Z,13.07
2022-11-29T05:15:59.825Z,11.73
2022-11-29T05:18:35.853Z,11.82
2022-11-29T05:21:27.934Z,10.60
2022-11-29T05:24:07.100Z,13.82
2022-11-29T05:26:55.391Z,21.40
2022-11-29T05:29:50.322Z,23.00
2022-11-29T05:32:35.796Z,15.13
2022-11-29T05:35:18.333Z,13.00
2022-11-29T05:40:43.466Z,11.68
2022-11-29T05:43:18.969Z,15.18
2022-11-29T05:45:58.301Z,11.55
2022-11-29T05:48:31.801Z,15.27
2022-11-29T05:51:28.801Z,13.48
2022-11-29T05:54:33.999Z,17.73
2022-11-29T05:57:32.009Z,15.70
2022-11-29T06:00:02.244Z,14.13
2022-11-29T06:02:45.043Z,13.95
2022-11-29T06:05:33.842Z,12.73
2022-11-29T06:08:07.276Z,11.05
2022-11-29T06:10:40.162Z,12.65
2022-11-29T06:13:29.708Z,12.93
2022-11-29T06:16:18.650Z,14.90
2022-11-29T06:19:12.089Z,13.13
2022-11-29T06:22:00.262Z,23.85
2022-11-29T06:24:43.354Z,16.02
2022-11-29T06:27:21.977Z,14.88
2022-11-29T06:30:01.113Z,20.67
2022-11-29T06:33:01.501Z,22.85
2022-11-29T06:35:47.218Z,21.75
2022-11-29T06:38:23.661Z,14.07
2022-11-29T06:40:56.048Z,13.35
2022-11-29T06:43:27.688Z,16.60
2022-11-29T06:46:35.271Z,17.00
2022-11-29T06:49:02.669Z,21.48
2022-11-29T06:51:29.812Z,16.95
2022-11-29T06:54:17.238Z,17.30
2022-11-29T06:56:55.805Z,15.63
2022-11-29T06:59:40.883Z,19.02
2022-11-29T07:02:26.226Z,16.48
2022-11-29T07:04:53.478Z,19.33
2022-11-29T07:07:22.884Z,17.13
2022-11-29T07:09:53.409Z,19.08
2022-11-29T07:12:20.954Z,19.40
2022-11-29T07:14:48.445Z,16.00
2022-11-29T07:17:32.598Z,16.20
2022-11-29T07:20:24.072Z,18.50
2022-11-29T07:23:13.363Z,19.67
2022-11-29T07:26:05.035Z,28.52
2022-11-29T07:28:38.114Z,18.73
2022-11-29T07:31:08.779Z,26.23
2022-11-29T07:34:02.756Z,24.25
2022-11-29T07:36:32.730Z,27.30
2022-11-29T07:39:29.115Z,27.63
2022-11-29T07:42:20.770Z,22.75
2022-11-29T07:44:59.984Z,27.08
2022-11-29T07:47:30.085Z,27.42
2022-11-29T07:50:01.436Z,26.27
2022-11-29T07:52:28.955Z,17.38
2022-11-29T07:54:56.482Z,28.10
2022-11-29T07:57:23.588Z,19.30
2022-11-29T07:59:50.917Z,21.30
2022-11-29T08:02:27.976Z,22.15
2022-11-29T08:04:55.257Z,20.27
2022-11-29T08:07:24.035Z,18.05
2022-11-29T08:09:51.277Z,14.80
2022-11-29T08:12:18.896Z,18.60
2022-11-29T08:14:46.474Z,18.45
2022-11-29T08:17:13.753Z,16.88
2022-11-29T08:19:43.109Z,17.58
2022-11-29T08:22:10.328Z,16.33
2022-11-29T08:24:37.563Z,22.73
2022-11-29T08:27:04.939Z,22.40
2022-11-29T08:29:32.312Z,22.73
2022-11-29T08:31:59.716Z,21.98
2022-11-29T08:34:27.301Z,18.50
2022-11-29T08:36:57.612Z,21.23
2022-11-29T08:39:24.961Z,17.98
2022-11-29T08:41:52.207Z,17.88
2022-11-29T08:44:19.634Z,31.92
2022-11-29T08:47:05.205Z,54.05
2022-11-29T08:49:32.490Z,20.88
2022-11-29T08:52:19.843Z,18.58
2022-11-29T08:54:47.524Z,17.77
2022-11-29T08:57:38.976Z,16.70
2022-11-29T09:00:02.844Z,18.38
2022-11-29T09:02:30.175Z,14.65
2022-11-29T09:04:57.644Z,18.88
2022-11-29T09:07:25.049Z,16.50
2022-11-29T09:09:52.341Z,13.50
2022-11-29T09:12:19.471Z,15.15
2022-11-29T09:14:46.872Z,27.40
2022-11-29T09:17:14.297Z,17.13
2022-11-29T09:19:41.392Z,10.85
2022-11-29T09:22:08.626Z,14.60
2022-11-29T09:24:35.959Z,10.20
2022-11-29T09:27:03.235Z,15.98
2022-11-29T09:29:30.637Z,12.90
2022-11-29T09:31:57.851Z,11.75
2022-11-29T09:34:25.079Z,10.98
2022-11-29T09:36:52.455Z,13.00
2022-11-29T09:39:19.661Z,11.93
2022-11-29T09:42:21.071Z,10.65
2022-11-29T09:45:11.185Z,13.32
2022-11-29T09:48:00.088Z,9.80
2022-11-29T09:50:43.058Z,11.18
2022-11-29T09:53:28.554Z,8.40
2022-11-29T09:56:12.367Z,13.50
2022-11-29T09:58:49.853Z,8.18
2022-11-29T10:01:26.540Z,7.85
2022-11-29T10:03:57.949Z,6.75
2022-11-29T10:06:40.682Z,8.60
2022-11-29T10:09:17.189Z,8.07
2022-11-29T10:11:54.870Z,8.85
2022-11-29T10:14:48.703Z,12.43
2022-11-29T10:17:40.785Z,19.73
2022-11-29T10:20:19.096Z,11.50
2022-11-29T10:22:53.389Z,10.23
2022-11-29T10:25:30.889Z,7.53
2022-11-29T10:27:58.732Z,8.50
2022-11-29T10:30:25.898Z,7.28
2022-11-29T10:33:00.291Z,5.65
2022-11-29T10:35:29.610Z,9.75
2022-11-29T10:38:30.261Z,7.93
2022-11-29T10:40:53.108Z,9.30
2022-11-29T10:43:20.798Z,7.05
2022-11-29T10:45:56.267Z,6.43
2022-11-29T10:48:27.721Z,10.40
2022-11-29T10:50:55.040Z,8.43
2022-11-29T10:53:36.771Z,8.07
2022-11-29T10:56:38.306Z,7.50
2022-11-29T10:59:09.330Z,6.72
2022-11-29T11:01:38.663Z,7.75
2022-11-29T11:04:10.084Z,6.07
2022-11-29T11:06:53.390Z,6.67
2022-11-29T11:09:32.763Z,5.45
2022-11-29T11:12:08.235Z,6.35
2022-11-29T11:14:38.081Z,7.18
2022-11-29T11:17:37.942Z,6.97
2022-11-29T11:20:27.457Z,7.05
2022-11-29T11:23:04.625Z,5.95
2022-11-29T11:25:39.813Z,5.40
2022-11-29T11:28:20.565Z,6.20
2022-11-29T11:30:55.105Z,4.47
2022-11-29T11:33:28.208Z,8.43
2022-11-29T11:36:27.241Z,5.45
2022-11-29T11:38:54.760Z,4.70
2022-11-29T11:41:47.061Z,7.72
2022-11-29T11:44:47.527Z,7.03
2022-11-29T11:47:22.802Z,4.60
2022-11-29T11:50:00.647Z,4.63
2022-11-29T11:52:40.516Z,6.30
2022-11-29T11:55:30.688Z,5.18
2022-11-29T11:58:16.367Z,19.05
2022-11-29T12:01:13.681Z,4.47
2022-11-29T12:03:58.259Z,5.43
2022-11-29T12:06:42.894Z,5.72
2022-11-29T12:09:18.867Z,7.95
2022-11-29T12:12:06.107Z,5.35
2022-11-29T12:14:48.423Z,5.95
2022-11-29T12:17:35.179Z,5.00
2022-11-29T12:20:11.190Z,4.80
2022-11-29T12:22:57.729Z,9.32
2022-11-29T12:25:30.602Z,7.97
2022-11-29T12:27:57.961Z,6.03
2022-11-29T12:30:25.262Z,6.72
2022-11-29T12:33:15.513Z,5.78
2022-11-29T12:36:12.458Z,5.85
2022-11-29T12:39:07.657Z,7.40
2022-11-29T12:42:22.919Z,6.00
2022-11-29T12:45:16.598Z,7.70
2022-11-29T12:48:03.588Z,17.02
2022-11-29T12:50:50.930Z,10.35
2022-11-29T12:53:29.801Z,13.32
2022-11-29T12:56:19.287Z,6.05
2022-11-29T12:59:25.438Z,5.30
2022-11-29T13:02:33.784Z,6.97
2022-11-29T13:05:22.637Z,7.55
2022-11-29T13:08:10.142Z,5.00
2022-11-29T13:10:52.562Z,5.68
2022-11-29T13:16:30.835Z,5.72
2022-11-29T13:19:33.105Z,5.85
2022-11-29T13:22:11.135Z,9.80
2022-11-29T13:24:46.698Z,4.53
2022-11-29T13:27:28.670Z,6.32
2022-11-29T13:29:58.628Z,8.05
2022-11-29T13:32:43.066Z,5.93
2022-11-29T13:35:38.065Z,8.40
2022-11-29T13:38:05.450Z,6.50
2022-11-29T13:40:38.341Z,5.20
2022-11-29T13:43:31.087Z,8.20
2022-11-29T13:46:21.816Z,6.53
2022-11-29T13:48:54.411Z,12.18
2022-11-29T13:51:44.554Z,6.97
2022-11-29T13:54:30.931Z,8.63
2022-11-29T13:57:09.633Z,7.85
2022-11-29T13:59:44.267Z,14.05
2022-11-29T14:02:30.889Z,37.17
2022-11-29T14:04:58.566Z,14.75
2022-11-29T14:07:26.092Z,12.00
2022-11-29T14:09:57.340Z,6.03
2022-11-29T14:12:55.108Z,5.85
2022-11-29T14:15:32.213Z,8.15
2022-11-29T14:18:08.398Z,5.45
2022-11-29T14:20:41.388Z,10.60
2022-11-29T14:23:08.540Z,9.77
2022-11-29T14:25:55.246Z,5.88
2022-11-29T14:28:22.511Z,8.05
2022-11-29T14:31:03.682Z,5.95
2022-11-29T14:34:13.598Z,5.22
2022-11-29T14:37:06.803Z,5.82
2022-11-29T14:39:46.878Z,7.05
2022-11-29T14:42:22.218Z,7.70
2022-11-29T14:44:56.150Z,8.30
2022-11-29T14:47:30.046Z,5.55
2022-11-29T14:49:59.763Z,7.32
2022-11-29T14:52:38.730Z,5.85
2022-11-29T14:55:06.246Z,12.00
2022-11-29T14:57:54.926Z,7.90
2022-11-29T15:00:29.474Z,12.48
2022-11-29T15:03:14.425Z,14.73
2022-11-29T15:05:45.155Z,10.60
2022-11-29T15:08:16.488Z,9.30
2022-11-29T15:10:53.455Z,9.57
2022-11-29T15:13:27.190Z,8.90
2022-11-29T15:16:13.647Z,9.57
2022-11-29T15:19:04.114Z,11.43
2022-11-29T15:21:34.016Z,7.25
2022-11-29T15:24:13.435Z,21.52
2022-11-29T15:27:00.945Z,7.20
2022-11-29T15:29:29.747Z,6.82
2022-11-29T15:32:03.900Z,7.72
2022-11-29T15:34:37.037Z,7.78
2022-11-29T15:37:04.778Z,5.90
2022-11-29T15:39:34.801Z,5.53
2022-11-29T15:42:12.173Z,8.40
2022-11-29T15:44:46.290Z,6.60
2022-11-29T15:47:25.150Z,7.85
2022-11-29T15:49:54.038Z,6.50
2022-11-29T15:52:34.694Z,11.45
2022-11-29T15:55:05.767Z,9.35
2022-11-29T15:57:38.418Z,24.45
2022-11-29T16:00:08.381Z,16.10
2022-11-29T16:02:39.682Z,9.88
2022-11-29T16:05:15.998Z,19.83
2022-11-29T16:07:45.259Z,10.02
2022-11-29T16:10:18.334Z,8.93
2022-11-29T16:13:05.944Z,11.15
2022-11-29T16:15:36.577Z,9.00
2022-11-29T16:18:13.832Z,9.50
2022-11-29T16:20:43.595Z,10.95
2022-11-29T16:23:13.507Z,11.48
2022-11-29T16:26:13.625Z,9.80
2022-11-29T16:28:47.134Z,10.25
2022-11-29T16:31:36.396Z,10.45
2022-11-29T16:34:29.991Z,8.55
2022-11-29T16:37:04.036Z,10.95
2022-11-29T16:39:31.708Z,15.38
2022-11-29T16:42:23.423Z,24.25
2022-11-29T16:45:01.947Z,14.90
2022-11-29T16:47:47.489Z,12.10
2022-11-29T16:50:19.974Z,9.57
2022-11-29T16:52:50.872Z,10.43
2022-11-29T16:55:22.471Z,15.85
2022-11-29T16:57:50.020Z,13.10
2022-11-29T17:00:32.517Z,14.65
2022-11-29T17:03:00.114Z,14.18
2022-11-29T17:05:27.871Z,22.73
2022-11-29T17:07:55.148Z,16.50
2022-11-29T17:10:25.225Z,14.55
2022-11-29T17:12:52.867Z,24.00
2022-11-29T17:15:20.072Z,39.33
2022-11-29T17:17:47.201Z,40.33
2022-11-29T17:20:14.514Z,111.10
2022-11-29T17:22:42.058Z,66.82
2022-11-29T17:25:10.081Z,88.20
2022-11-29T17:27:37.463Z,68.20
2022-11-29T17:30:06.196Z,12.95
2022-11-29T17:32:36.120Z,21.55
2022-11-29T17:35:03.747Z,17.38
2022-11-29T17:37:31.397Z,19.48
2022-11-29T17:39:58.671Z,14.45
2022-11-29T17:42:25.863Z,23.38
2022-11-29T17:44:53.097Z,11.25
2022-11-29T17:47:20.210Z,14.30
2022-11-29T17:49:47.796Z,12.82
2022-11-29T17:52:15.463Z,13.45
2022-11-29T17:54:42.579Z,12.50
2022-11-29T17:57:10.421Z,14.95
2022-11-29T17:59:37.585Z,10.00
2022-11-29T18:02:04.909Z,9.43
2022-11-29T18:04:32.109Z,13.20
2022-11-29T18:06:59.422Z,10.45
2022-11-29T18:09:26.689Z,14.13
2022-11-29T18:11:53.806Z,21.23
2022-11-29T18:14:23.956Z,21.65
2022-11-29T18:16:52.201Z,16.63
2022-11-29T18:19:22.251Z,13.45
2022-11-29T18:21:50.366Z,134.90
2022-11-29T18:24:18.202Z,69.85
2022-11-29T18:26:46.065Z,35.47
2022-11-29T18:29:13.369Z,19.98
2022-11-29T18:31:43.033Z,118.00
2022-11-29T18:34:13.313Z,88.95
2022-11-29T18:36:46.058Z,39.47
2022-11-29T18:39:16.374Z,16.73
2022-11-29T18:41:45.546Z,16.15
2022-11-29T18:44:14.696Z,11.05
2022-11-29T18:46:43.971Z,10.68
2022-11-29T18:49:18.254Z,10.00
2022-11-29T18:51:46.601Z,8.55
2022-11-29T18:54:16.089Z,11.60
2022-11-29T18:56:44.276Z,11.20
2022-11-29T18:59:14.934Z,11.43
2022-11-29T19:01:45.362Z,13.25
2022-11-29T19:04:15.352Z,13.20
2022-11-29T19:06:43.265Z,11.38
2022-11-29T19:09:21.739Z,9.80
2022-11-29T19:11:49.947Z,11.32
2022-11-29T19:14:17.173Z,12.30
2022-11-29T19:16:46.564Z,16.33
2022-11-29T19:19:13.973Z,14.52
2022-11-29T19:21:41.631Z,22.13
2022-11-29T19:24:14.830Z,19.40
2022-11-29T19:26:44.934Z,17.15
2022-11-29T19:29:13.437Z,13.25
2022-11-29T19:31:40.508Z,17.77
2022-11-29T19:34:08.154Z,11.77
2022-11-29T19:36:43.961Z,13.68
2022-11-29T19:39:14.286Z,12.38
2022-11-29T19:41:46.150Z,14.27
2022-11-29T19:44:13.348Z,14.25
2022-11-29T19:46:43.303Z,11.52
2022-11-29T19:49:11.173Z,20.15
2022-11-29T19:51:38.639Z,19.90
2022-11-29T19:54:07.921Z,36.63
2022-11-29T19:56:35.434Z,131.82
2022-11-29T19:59:02.783Z,28.80
2022-11-29T20:01:39.311Z,39.25
2022-11-29T20:04:08.938Z,21.58
2022-11-29T20:06:36.298Z,59.15
2022-11-29T20:09:04.004Z,57.88
2022-11-29T20:11:31.139Z,51.45
2022-11-29T20:14:02.981Z,166.98
2022-11-29T20:16:31.221Z,70.57
2022-11-29T20:18:59.162Z,85.20
2022-11-29T20:21:29.384Z,187.85
2022-11-29T20:24:01.892Z,192.80
2022-11-29T20:28:58.694Z,65.30
2022-11-29T20:31:26.147Z,98.40
2022-11-29T20:33:54.667Z,129.02
2022-11-29T20:36:36.545Z,104.80
2022-11-29T20:39:29.127Z,71.97
2022-11-29T20:42:28.672Z,103.05
2022-11-29T20:44:58.437Z,94.25
2022-11-29T20:47:28.192Z,88.85
2022-11-29T20:49:55.565Z,60.15
2022-11-29T20:52:41.192Z,84.35
2022-11-29T20:55:08.904Z,59.05
2022-11-29T20:57:38.430Z,48.97
2022-11-29T21:00:11.417Z,43.30
2022-11-29T21:02:39.436Z,66.72
2022-11-29T21:05:07.116Z,52.70
2022-11-29T21:07:34.819Z,32.78
2022-11-29T21:10:02.216Z,95.40
2022-11-29T21:12:30.899Z,130.57
2022-11-29T21:14:58.714Z,45.55
2022-11-29T21:17:31.832Z,74.78
2022-11-29T21:20:01.234Z,41.25
2022-11-29T21:22:42.317Z,69.55
2022-11-29T21:25:27.174Z,48.13
2022-11-29T21:27:55.750Z,38.47
2022-11-29T21:30:25.053Z,26.27
2022-11-29T21:32:53.023Z,22.48
2022-11-29T21:35:20.067Z,24.00
2022-11-29T21:37:47.525Z,19.98
2022-11-29T21:40:15.425Z,22.90
2022-11-29T21:42:42.697Z,20.83
2022-11-29T21:45:15.293Z,18.50
2022-11-29T21:47:44.220Z,18.13
2022-11-29T21:50:13.358Z,19.15
2022-11-29T21:52:40.843Z,19.63
2022-11-29T21:55:08.442Z,17.00
2022-11-29T21:57:35.842Z,16.40
2022-11-29T22:00:04.098Z,20.23
2022-11-29T22:02:31.607Z,18.13
2022-11-29T22:04:58.738Z,21.10
2022-11-29T22:07:25.891Z,20.33
2022-11-29T22:09:53.027Z,20.23
2022-11-29T22:12:33.825Z,22.23
2022-11-29T22:15:01.942Z,21.87
2022-11-29T22:17:29.030Z,20.13
2022-11-29T22:19:56.154Z,19.35
2022-11-29T22:22:27.103Z,74.32
2022-11-29T22:24:55.373Z,47.55
2022-11-29T22:27:22.507Z,52.83
2022-11-29T22:29:49.730Z,33.20
2022-11-29T22:32:16.774Z,29.15
2022-11-29T22:34:44.120Z,24.33
2022-11-29T22:37:12.548Z,18.98
2022-11-29T22:39:39.842Z,24.55
2022-11-29T22:42:07.695Z,19.80
2022-11-29T22:44:34.858Z,17.63
2022-11-29T22:47:02.001Z,18.27
2022-11-29T22:49:30.175Z,18.45
2022-11-29T22:51:57.375Z,20.67
2022-11-29T22:54:24.586Z,19.80
2022-11-29T22:56:52.546Z,19.60
2022-11-29T22:59:19.672Z,18.45
2022-11-29T23:01:47.144Z,18.77
2022-11-29T23:04:14.378Z,23.90
2022-11-29T23:06:44.501Z,47.58
2022-11-29T23:09:17.362Z,29.08
2022-11-29T23:11:46.186Z,20.48
2022-11-29T23:14:13.617Z,26.38
2022-11-29T23:16:40.911Z,26.35
2022-11-29T23:19:08.261Z,32.28
2022-11-29T23:21:37.893Z,54.33
2022-11-29T23:24:05.455Z,50.65
2022-11-29T23:26:40.771Z,49.28
2022-11-29T23:29:11.776Z,34.00
2022-11-29T23:31:39.636Z,38.10
2022-11-29T23:34:06.922Z,23.20
2022-11-29T23:36:34.579Z,28.85
2022-11-29T23:39:04.872Z,17.67
2022-11-29T23:41:32.282Z,18.15
2022-11-29T23:44:02.662Z,21.17
2022-11-29T23:46:29.761Z,23.45
2022-11-29T23:48:56.943Z,26.95
2022-11-29T23:51:24.166Z,25.65
2022-11-29T23:53:53.494Z,22.00
2022-11-29T23:56:21.805Z,20.80
2022-11-29T23:58:49.575Z,23.13
